Magne Viking — OURK2 — position and weather

sailwx.info

Track history (hours):
 
Tides and Currents Weather Stations Pressure Air Temp Water Temp Dewpoint Dewpoint Depression Visibility Wind Speed Wind Dir Waves Ship Positions

Magne Viking

Last reported at 2015-Mar-02 06:32 UTC. Time now 2015-Mar-02 07:28 UTC.
Position N 57°09' W 002°05'.

Length 85 m; draft 6.5 m.

Type: Tug. MMSI: 219375000.

Date/timePositionNaut miles runAvg speedWind from/ knotsBaromVisibWave heightAir tempDewpointWater temp
2015-Mar-02 06:32N 57°09' W 002°05'0 0.0
2015-Mar-02 05:32N 57°09' W 002°05'0 0.0
2015-Mar-02 04:33N 57°09' W 002°05'0 0.0
2015-Mar-02 03:31N 57°09' W 002°05'0 0.0
2015-Mar-02 02:32N 57°09' W 002°05'0 0.0
2015-Mar-02 01:32N 57°09' W 002°05'0 0.0
2015-Mar-02 00:30N 57°09' W 002°05'0 0.0
2015-Mar-01 23:33N 57°09' W 002°05'0 0.0
2015-Mar-01 22:31N 57°09' W 002°05'0 0.0
2015-Mar-01 21:32N 57°09' W 002°05'0 0.0
2015-Mar-01 20:33N 57°09' W 002°05'0 0.0
2015-Mar-01 19:33N 57°09' W 002°05'0 0.0
2015-Mar-01 18:31N 57°09' W 002°05'0 0.0
2015-Mar-01 17:32N 57°09' W 002°05'0 0.0
2015-Mar-01 16:32N 57°09' W 002°05'0 0.0
2015-Mar-01 15:33N 57°09' W 002°05'0 0.0
2015-Mar-01 14:34N 57°09' W 002°05'0 0.0
2015-Mar-01 13:31N 57°09' W 002°05'0 0.0
2015-Mar-01 12:32N 57°09' W 002°05'0 0.0
2015-Mar-01 11:33N 57°09' W 002°05'0 0.0
2015-Mar-01 10:33N 57°09' W 002°05'0 0.0
2015-Mar-01 09:31N 57°09' W 002°05'0 0.0
2015-Mar-01 08:32N 57°09' W 002°05'0 0.0
2015-Mar-01 07:32N 57°09' W 002°05'0 0.0
2015-Mar-01 06:33N 57°09' W 002°05'0 0.0
2015-Mar-01 05:31N 57°09' W 002°05'0 0.0
2015-Mar-01 04:31N 57°09' W 002°05'0 0.0
2015-Mar-01 03:32N 57°09' W 002°05'0 0.0
2015-Mar-01 02:33N 57°09' W 002°05'0 0.0
2015-Mar-01 01:33N 57°09' W 002°05'0 0.0
2015-Mar-01 00:31N 57°09' W 002°05'0 0.0
2015-Feb-28 23:32N 57°09' W 002°05'2 1.8
2015-Feb-28 22:25N 57°10' W 002°02'10 4.6
2015-Feb-28 20:13N 57°18' W 001°53'811.6
2015-Feb-28 19:32N 57°26' W 001°46'1111.4
2015-Feb-28 18:34N 57°37' W 001°46'1111.3
2015-Feb-28 17:34N 57°45' W 002°01'  
2015-Feb-22 20:15N 57°45' W 002°28'9 5.5
2015-Feb-22 18:33N 57°45' W 002°11'9 8.8
2015-Feb-22 17:33N 57°43' W 001°55'10 9.9
2015-Feb-22 16:33N 57°35' W 001°43'9 9.5
2015-Feb-22 15:34N 57°26' W 001°42'  
Track history (hours):
 
Tides and Currents Weather Stations Pressure Air Temp Water Temp Dewpoint Dewpoint Depression Visibility Wind Speed Wind Dir Waves Ship Positions

Magne Viking

Last reported at 2015-Mar-02 06:32 UTC. Time now 2015-Mar-02 07:28 UTC.
Position N 57°09' W 002°05'.

Length 85 m; draft 6.5 m.

Type: Tug. MMSI: 219375000.

Date/timePositionNaut miles runAvg speedWind from/ knotsBaromVisibWave heightAir tempDewpointWater temp
2015-Mar-02 06:32N 57°09' W 002°05'0 0.0
2015-Mar-02 05:32N 57°09' W 002°05'0 0.0
2015-Mar-02 04:33N 57°09' W 002°05'0 0.0
2015-Mar-02 03:31N 57°09' W 002°05'0 0.0
2015-Mar-02 02:32N 57°09' W 002°05'0 0.0
2015-Mar-02 01:32N 57°09' W 002°05'0 0.0
2015-Mar-02 00:30N 57°09' W 002°05'0 0.0
2015-Mar-01 23:33N 57°09' W 002°05'0 0.0
2015-Mar-01 22:31N 57°09' W 002°05'0 0.0
2015-Mar-01 21:32N 57°09' W 002°05'0 0.0
2015-Mar-01 20:33N 57°09' W 002°05'0 0.0
2015-Mar-01 19:33N 57°09' W 002°05'0 0.0
2015-Mar-01 18:31N 57°09' W 002°05'0 0.0
2015-Mar-01 17:32N 57°09' W 002°05'0 0.0
2015-Mar-01 16:32N 57°09' W 002°05'0 0.0
2015-Mar-01 15:33N 57°09' W 002°05'0 0.0
2015-Mar-01 14:34N 57°09' W 002°05'0 0.0
2015-Mar-01 13:31N 57°09' W 002°05'0 0.0
2015-Mar-01 12:32N 57°09' W 002°05'0 0.0
2015-Mar-01 11:33N 57°09' W 002°05'0 0.0
2015-Mar-01 10:33N 57°09' W 002°05'0 0.0
2015-Mar-01 09:31N 57°09' W 002°05'0 0.0
2015-Mar-01 08:32N 57°09' W 002°05'0 0.0
2015-Mar-01 07:32N 57°09' W 002°05'0 0.0
2015-Mar-01 06:33N 57°09' W 002°05'0 0.0
2015-Mar-01 05:31N 57°09' W 002°05'0 0.0
2015-Mar-01 04:31N 57°09' W 002°05'0 0.0
2015-Mar-01 03:32N 57°09' W 002°05'0 0.0
2015-Mar-01 02:33N 57°09' W 002°05'0 0.0
2015-Mar-01 01:33N 57°09' W 002°05'0 0.0
2015-Mar-01 00:31N 57°09' W 002°05'0 0.0
2015-Feb-28 23:32N 57°09' W 002°05'2 1.8
2015-Feb-28 22:25N 57°10' W 002°02'10 4.6
2015-Feb-28 20:13N 57°18' W 001°53'811.6
2015-Feb-28 19:32N 57°26' W 001°46'1111.4
2015-Feb-28 18:34N 57°37' W 001°46'1111.3
2015-Feb-28 17:34N 57°45' W 002°01'  
2015-Feb-22 20:15N 57°45' W 002°28'9 5.5
2015-Feb-22 18:33N 57°45' W 002°11'9 8.8
2015-Feb-22 17:33N 57°43' W 001°55'10 9.9
2015-Feb-22 16:33N 57°35' W 001°43'9 9.5
2015-Feb-22 15:34N 57°26' W 001°42'  

Dump ship's entire track history